sensor_id;sensor_type;location;lat;lon;timestamp;P1;durP1;ratioP1;P2;durP2;ratioP2
41446;SDS011;27185;52.040;4.490;2022-08-14T00:02:41;5.63;;;2.40;;
41446;SDS011;27185;52.040;4.490;2022-08-14T00:05:28;3.40;;;2.50;;
41446;SDS011;27185;52.040;4.490;2022-08-14T00:08:13;3.63;;;2.42;;
41446;SDS011;27185;52.040;4.490;2022-08-14T00:10:59;6.68;;;4.22;;
41446;SDS011;27185;52.040;4.490;2022-08-14T00:13:45;5.35;;;3.95;;
41446;SDS011;27185;52.040;4.490;2022-08-14T00:16:32;3.47;;;3.17;;
41446;SDS011;27185;52.040;4.490;2022-08-14T00:19:18;5.78;;;3.38;;
41446;SDS011;27185;52.040;4.490;2022-08-14T00:22:03;3.25;;;2.85;;
41446;SDS011;27185;52.040;4.490;2022-08-14T00:24:49;5.65;;;3.65;;
41446;SDS011;27185;52.040;4.490;2022-08-14T00:27:35;5.68;;;3.40;;
41446;SDS011;27185;52.040;4.490;2022-08-14T00:30:21;7.00;;;3.53;;
41446;SDS011;27185;52.040;4.490;2022-08-14T00:33:07;6.78;;;3.83;;
41446;SDS011;27185;52.040;4.490;2022-08-14T00:35:53;4.80;;;3.80;;
41446;SDS011;27185;52.040;4.490;2022-08-14T00:38:39;11.75;;;4.40;;
41446;SDS011;27185;52.040;4.490;2022-08-14T00:41:29;6.28;;;4.32;;
41446;SDS011;27185;52.040;4.490;2022-08-14T00:44:15;4.78;;;4.30;;
41446;SDS011;27185;52.040;4.490;2022-08-14T00:47:02;5.28;;;4.30;;
41446;SDS011;27185;52.040;4.490;2022-08-14T00:49:53;5.57;;;3.50;;
41446;SDS011;27185;52.040;4.490;2022-08-14T00:52:42;6.63;;;3.60;;
41446;SDS011;27185;52.040;4.490;2022-08-14T00:55:29;3.58;;;3.15;;
41446;SDS011;27185;52.040;4.490;2022-08-14T00:58:16;5.60;;;3.10;;
41446;SDS011;27185;52.040;4.490;2022-08-14T01:01:14;5.75;;;3.30;;
41446;SDS011;27185;52.040;4.490;2022-08-14T01:04:02;3.55;;;2.55;;
41446;SDS011;27185;52.040;4.490;2022-08-14T01:06:49;5.38;;;3.05;;
41446;SDS011;27185;52.040;4.490;2022-08-14T01:09:36;5.68;;;3.30;;
41446;SDS011;27185;52.040;4.490;2022-08-14T01:12:22;5.40;;;3.10;;
41446;SDS011;27185;52.040;4.490;2022-08-14T01:15:09;3.35;;;3.05;;
41446;SDS011;27185;52.040;4.490;2022-08-14T01:17:55;7.03;;;3.58;;
41446;SDS011;27185;52.040;4.490;2022-08-14T01:21:00;4.70;;;3.70;;
41446;SDS011;27185;52.040;4.490;2022-08-14T01:23:57;6.18;;;4.00;;
41446;SDS011;27185;52.040;4.490;2022-08-14T01:26:43;5.38;;;3.80;;
41446;SDS011;27185;52.040;4.490;2022-08-14T01:29:30;5.07;;;3.40;;
41446;SDS011;27185;52.040;4.490;2022-08-14T01:32:22;6.55;;;3.22;;
41446;SDS011;27185;52.040;4.490;2022-08-14T01:35:08;4.88;;;2.97;;
41446;SDS011;27185;52.040;4.490;2022-08-14T01:37:54;5.30;;;3.70;;
41446;SDS011;27185;52.040;4.490;2022-08-14T01:40:39;6.38;;;3.47;;
41446;SDS011;27185;52.040;4.490;2022-08-14T01:43:25;4.35;;;3.30;;
41446;SDS011;27185;52.040;4.490;2022-08-14T01:46:15;4.90;;;3.97;;
41446;SDS011;27185;52.040;4.490;2022-08-14T01:49:03;4.82;;;3.63;;
41446;SDS011;27185;52.040;4.490;2022-08-14T01:51:53;4.43;;;3.17;;
41446;SDS011;27185;52.040;4.490;2022-08-14T01:54:40;5.00;;;3.53;;
41446;SDS011;27185;52.040;4.490;2022-08-14T01:57:26;4.18;;;3.72;;
41446;SDS011;27185;52.040;4.490;2022-08-14T02:00:12;5.65;;;3.70;;
41446;SDS011;27185;52.040;4.490;2022-08-14T02:03:00;4.70;;;4.20;;
41446;SDS011;27185;52.040;4.490;2022-08-14T02:05:45;4.75;;;3.47;;
41446;SDS011;27185;52.040;4.490;2022-08-14T02:08:31;5.28;;;3.40;;
41446;SDS011;27185;52.040;4.490;2022-08-14T02:11:17;6.10;;;5.10;;
41446;SDS011;27185;52.040;4.490;2022-08-14T02:14:07;5.30;;;4.68;;
41446;SDS011;27185;52.040;4.490;2022-08-14T02:16:54;7.40;;;6.15;;
41446;SDS011;27185;52.040;4.490;2022-08-14T02:19:41;6.00;;;4.38;;
41446;SDS011;27185;52.040;4.490;2022-08-14T02:22:26;5.53;;;4.35;;
41446;SDS011;27185;52.040;4.490;2022-08-14T02:25:12;6.18;;;4.50;;
41446;SDS011;27185;52.040;4.490;2022-08-14T02:27:58;5.40;;;3.90;;
41446;SDS011;27185;52.040;4.490;2022-08-14T02:30:43;4.47;;;3.58;;
41446;SDS011;27185;52.040;4.490;2022-08-14T02:33:29;5.60;;;3.95;;
41446;SDS011;27185;52.040;4.490;2022-08-14T02:36:17;5.10;;;3.70;;
41446;SDS011;27185;52.040;4.490;2022-08-14T02:39:04;4.57;;;3.72;;
41446;SDS011;27185;52.040;4.490;2022-08-14T02:41:51;5.50;;;3.72;;
41446;SDS011;27185;52.040;4.490;2022-08-14T02:44:38;5.22;;;4.25;;
41446;SDS011;27185;52.040;4.490;2022-08-14T02:47:25;4.57;;;4.07;;
41446;SDS011;27185;52.040;4.490;2022-08-14T02:50:12;4.55;;;4.05;;
41446;SDS011;27185;52.040;4.490;2022-08-14T02:53:00;7.10;;;4.28;;
41446;SDS011;27185;52.040;4.490;2022-08-14T02:55:46;5.68;;;3.78;;
41446;SDS011;27185;52.040;4.490;2022-08-14T02:58:36;5.03;;;4.00;;
41446;SDS011;27185;52.040;4.490;2022-08-14T03:01:23;4.88;;;4.15;;
41446;SDS011;27185;52.040;4.490;2022-08-14T03:04:09;7.50;;;4.18;;
41446;SDS011;27185;52.040;4.490;2022-08-14T03:06:56;5.38;;;3.90;;
41446;SDS011;27185;52.040;4.490;2022-08-14T03:09:42;5.78;;;4.47;;
41446;SDS011;27185;52.040;4.490;2022-08-14T03:12:28;6.60;;;4.28;;
41446;SDS011;27185;52.040;4.490;2022-08-14T03:15:13;5.63;;;4.60;;
41446;SDS011;27185;52.040;4.490;2022-08-14T03:17:59;5.40;;;4.90;;
41446;SDS011;27185;52.040;4.490;2022-08-14T03:20:44;5.32;;;4.05;;
41446;SDS011;27185;52.040;4.490;2022-08-14T03:23:30;7.20;;;4.60;;
41446;SDS011;27185;52.040;4.490;2022-08-14T03:26:19;6.47;;;5.35;;
41446;SDS011;27185;52.040;4.490;2022-08-14T03:29:09;6.97;;;4.72;;
41446;SDS011;27185;52.040;4.490;2022-08-14T03:31:56;8.05;;;4.80;;
41446;SDS011;27185;52.040;4.490;2022-08-14T03:34:43;5.00;;;4.50;;
41446;SDS011;27185;52.040;4.490;2022-08-14T03:37:30;5.75;;;4.50;;
41446;SDS011;27185;52.040;4.490;2022-08-14T03:40:21;5.40;;;4.85;;
41446;SDS011;27185;52.040;4.490;2022-08-14T03:43:09;5.50;;;4.88;;
41446;SDS011;27185;52.040;4.490;2022-08-14T03:45:55;5.82;;;4.38;;
41446;SDS011;27185;52.040;4.490;2022-08-14T03:48:41;5.53;;;4.80;;
41446;SDS011;27185;52.040;4.490;2022-08-14T03:51:27;4.53;;;4.07;;
41446;SDS011;27185;52.040;4.490;2022-08-14T03:54:13;8.35;;;4.40;;
41446;SDS011;27185;52.040;4.490;2022-08-14T03:56:59;7.78;;;4.78;;
41446;SDS011;27185;52.040;4.490;2022-08-14T03:59:46;9.20;;;5.03;;
41446;SDS011;27185;52.040;4.490;2022-08-14T04:02:31;5.13;;;4.63;;
41446;SDS011;27185;52.040;4.490;2022-08-14T04:05:36;6.50;;;5.35;;
41446;SDS011;27185;52.040;4.490;2022-08-14T04:08:22;7.13;;;4.95;;
41446;SDS011;27185;52.040;4.490;2022-08-14T04:11:08;8.52;;;5.05;;
41446;SDS011;27185;52.040;4.490;2022-08-14T04:13:54;7.30;;;5.35;;
41446;SDS011;27185;52.040;4.490;2022-08-14T04:16:40;7.35;;;4.85;;
41446;SDS011;27185;52.040;4.490;2022-08-14T04:19:29;9.15;;;5.68;;
41446;SDS011;27185;52.040;4.490;2022-08-14T04:22:15;6.93;;;5.35;;
41446;SDS011;27185;52.040;4.490;2022-08-14T04:25:00;8.15;;;5.10;;
41446;SDS011;27185;52.040;4.490;2022-08-14T04:27:46;6.43;;;5.82;;
41446;SDS011;27185;52.040;4.490;2022-08-14T04:30:32;6.53;;;5.93;;
41446;SDS011;27185;52.040;4.490;2022-08-14T04:33:23;6.72;;;6.03;;
41446;SDS011;27185;52.040;4.490;2022-08-14T04:36:09;5.95;;;5.35;;
41446;SDS011;27185;52.040;4.490;2022-08-14T04:38:55;9.25;;;5.25;;
41446;SDS011;27185;52.040;4.490;2022-08-14T04:41:59;6.10;;;5.50;;
41446;SDS011;27185;52.040;4.490;2022-08-14T04:45:03;8.10;;;5.95;;
41446;SDS011;27185;52.040;4.490;2022-08-14T04:47:50;6.28;;;5.68;;
41446;SDS011;27185;52.040;4.490;2022-08-14T04:50:56;7.35;;;5.78;;
41446;SDS011;27185;52.040;4.490;2022-08-14T04:53:43;6.45;;;5.82;;
41446;SDS011;27185;52.040;4.490;2022-08-14T04:56:30;6.22;;;5.63;;
41446;SDS011;27185;52.040;4.490;2022-08-14T04:59:16;7.55;;;6.30;;
41446;SDS011;27185;52.040;4.490;2022-08-14T05:02:01;5.88;;;5.25;;
41446;SDS011;27185;52.040;4.490;2022-08-14T05:04:47;7.45;;;6.65;;
41446;SDS011;27185;52.040;4.490;2022-08-14T05:07:33;9.77;;;6.15;;
41446;SDS011;27185;52.040;4.490;2022-08-14T05:10:19;7.20;;;6.05;;
41446;SDS011;27185;52.040;4.490;2022-08-14T05:13:08;7.38;;;6.60;;
41446;SDS011;27185;52.040;4.490;2022-08-14T05:15:55;7.77;;;6.97;;
41446;SDS011;27185;52.040;4.490;2022-08-14T05:18:42;8.73;;;6.90;;
41446;SDS011;27185;52.040;4.490;2022-08-14T05:21:30;9.93;;;6.25;;
41446;SDS011;27185;52.040;4.490;2022-08-14T05:24:18;10.43;;;6.78;;
41446;SDS011;27185;52.040;4.490;2022-08-14T05:27:04;6.95;;;6.25;;
41446;SDS011;27185;52.040;4.490;2022-08-14T05:29:51;7.47;;;6.57;;
41446;SDS011;27185;52.040;4.490;2022-08-14T05:32:37;7.53;;;6.68;;
41446;SDS011;27185;52.040;4.490;2022-08-14T05:35:23;8.57;;;6.63;;
41446;SDS011;27185;52.040;4.490;2022-08-14T05:38:09;8.70;;;6.93;;
41446;SDS011;27185;52.040;4.490;2022-08-14T05:41:02;8.82;;;6.47;;
41446;SDS011;27185;52.040;4.490;2022-08-14T05:43:49;6.78;;;6.18;;
41446;SDS011;27185;52.040;4.490;2022-08-14T05:46:34;8.77;;;7.22;;
41446;SDS011;27185;52.040;4.490;2022-08-14T05:49:21;7.03;;;6.28;;
41446;SDS011;27185;52.040;4.490;2022-08-14T05:52:06;8.38;;;7.10;;
41446;SDS011;27185;52.040;4.490;2022-08-14T05:54:52;9.52;;;6.18;;
41446;SDS011;27185;52.040;4.490;2022-08-14T05:58:12;10.38;;;6.57;;
41446;SDS011;27185;52.040;4.490;2022-08-14T06:00:52;7.45;;;6.47;;
41446;SDS011;27185;52.040;4.490;2022-08-14T06:03:38;7.30;;;6.55;;
41446;SDS011;27185;52.040;4.490;2022-08-14T06:06:23;9.05;;;6.70;;
41446;SDS011;27185;52.040;4.490;2022-08-14T06:09:09;8.82;;;7.50;;
41446;SDS011;27185;52.040;4.490;2022-08-14T06:11:55;8.30;;;7.50;;
41446;SDS011;27185;52.040;4.490;2022-08-14T06:14:40;7.95;;;6.45;;
41446;SDS011;27185;52.040;4.490;2022-08-14T06:17:27;9.80;;;6.93;;
41446;SDS011;27185;52.040;4.490;2022-08-14T06:20:13;7.93;;;7.13;;
41446;SDS011;27185;52.040;4.490;2022-08-14T06:23:00;7.18;;;6.43;;
41446;SDS011;27185;52.040;4.490;2022-08-14T06:25:45;8.57;;;7.35;;
41446;SDS011;27185;52.040;4.490;2022-08-14T06:28:31;8.20;;;7.40;;
41446;SDS011;27185;52.040;4.490;2022-08-14T06:31:17;12.88;;;8.70;;
41446;SDS011;27185;52.040;4.490;2022-08-14T06:34:03;8.98;;;7.40;;
41446;SDS011;27185;52.040;4.490;2022-08-14T06:36:48;8.10;;;6.68;;
41446;SDS011;27185;52.040;4.490;2022-08-14T06:39:34;8.80;;;7.15;;
41446;SDS011;27185;52.040;4.490;2022-08-14T06:42:19;7.13;;;6.43;;
41446;SDS011;27185;52.040;4.490;2022-08-14T06:45:05;8.68;;;6.88;;
41446;SDS011;27185;52.040;4.490;2022-08-14T06:47:52;7.13;;;6.43;;
41446;SDS011;27185;52.040;4.490;2022-08-14T06:50:38;7.35;;;6.65;;
41446;SDS011;27185;52.040;4.490;2022-08-14T06:53:24;13.98;;;11.40;;
41446;SDS011;27185;52.040;4.490;2022-08-14T06:56:11;11.02;;;8.82;;
41446;SDS011;27185;52.040;4.490;2022-08-14T06:58:57;10.80;;;7.93;;
41446;SDS011;27185;52.040;4.490;2022-08-14T07:01:43;7.43;;;6.72;;
41446;SDS011;27185;52.040;4.490;2022-08-14T07:04:47;7.70;;;7.00;;
41446;SDS011;27185;52.040;4.490;2022-08-14T07:07:51;7.82;;;6.35;;
41446;SDS011;27185;52.040;4.490;2022-08-14T07:10:36;7.13;;;6.40;;
41446;SDS011;27185;52.040;4.490;2022-08-14T07:13:22;9.10;;;6.90;;
41446;SDS011;27185;52.040;4.490;2022-08-14T07:16:09;8.07;;;6.60;;
41446;SDS011;27185;52.040;4.490;2022-08-14T07:18:57;12.05;;;8.50;;
41446;SDS011;27185;52.040;4.490;2022-08-14T07:21:42;11.02;;;6.68;;
41446;SDS011;27185;52.040;4.490;2022-08-14T07:24:28;8.82;;;7.40;;
41446;SDS011;27185;52.040;4.490;2022-08-14T07:27:13;7.03;;;6.28;;
41446;SDS011;27185;52.040;4.490;2022-08-14T07:30:00;7.45;;;6.65;;
41446;SDS011;27185;52.040;4.490;2022-08-14T07:32:48;8.35;;;6.82;;
41446;SDS011;27185;52.040;4.490;2022-08-14T07:35:34;7.88;;;6.30;;
41446;SDS011;27185;52.040;4.490;2022-08-14T07:38:21;9.55;;;6.00;;
41446;SDS011;27185;52.040;4.490;2022-08-14T07:41:08;8.43;;;6.40;;
41446;SDS011;27185;52.040;4.490;2022-08-14T07:43:55;7.47;;;6.68;;
41446;SDS011;27185;52.040;4.490;2022-08-14T07:46:41;7.47;;;6.78;;
41446;SDS011;27185;52.040;4.490;2022-08-14T07:49:26;7.03;;;6.32;;
41446;SDS011;27185;52.040;4.490;2022-08-14T07:52:12;8.20;;;6.20;;
41446;SDS011;27185;52.040;4.490;2022-08-14T07:54:58;9.55;;;8.35;;
41446;SDS011;27185;52.040;4.490;2022-08-14T07:57:45;8.83;;;7.17;;
41446;SDS011;27185;52.040;4.490;2022-08-14T08:00:31;8.68;;;6.47;;
41446;SDS011;27185;52.040;4.490;2022-08-14T08:03:17;7.95;;;5.75;;
41446;SDS011;27185;52.040;4.490;2022-08-14T08:06:03;8.18;;;6.18;;
41446;SDS011;27185;52.040;4.490;2022-08-14T08:08:49;8.18;;;7.38;;
41446;SDS011;27185;52.040;4.490;2022-08-14T08:11:37;8.25;;;6.63;;
41446;SDS011;27185;52.040;4.490;2022-08-14T08:14:24;6.88;;;6.22;;
41446;SDS011;27185;52.040;4.490;2022-08-14T08:17:10;7.22;;;6.53;;
41446;SDS011;27185;52.040;4.490;2022-08-14T08:19:56;6.32;;;5.72;;
41446;SDS011;27185;52.040;4.490;2022-08-14T08:22:42;6.68;;;5.97;;
41446;SDS011;27185;52.040;4.490;2022-08-14T08:25:29;6.68;;;5.28;;
41446;SDS011;27185;52.040;4.490;2022-08-14T08:28:20;6.70;;;5.25;;
41446;SDS011;27185;52.040;4.490;2022-08-14T08:31:07;7.05;;;6.35;;
41446;SDS011;27185;52.040;4.490;2022-08-14T08:33:55;5.90;;;4.90;;
41446;SDS011;27185;52.040;4.490;2022-08-14T08:36:42;7.77;;;5.90;;
41446;SDS011;27185;52.040;4.490;2022-08-14T08:39:28;5.95;;;5.40;;
41446;SDS011;27185;52.040;4.490;2022-08-14T08:42:23;8.15;;;4.60;;
41446;SDS011;27185;52.040;4.490;2022-08-14T08:45:09;5.60;;;4.72;;
41446;SDS011;27185;52.040;4.490;2022-08-14T08:47:54;5.25;;;4.75;;
41446;SDS011;27185;52.040;4.490;2022-08-14T08:50:40;7.53;;;4.68;;
41446;SDS011;27185;52.040;4.490;2022-08-14T08:53:32;6.10;;;5.10;;
41446;SDS011;27185;52.040;4.490;2022-08-14T08:56:19;8.10;;;5.47;;
41446;SDS011;27185;52.040;4.490;2022-08-14T09:02:10;5.28;;;4.25;;
41446;SDS011;27185;52.040;4.490;2022-08-14T09:05:02;8.10;;;5.03;;
41446;SDS011;27185;52.040;4.490;2022-08-14T09:07:48;5.45;;;3.70;;
41446;SDS011;27185;52.040;4.490;2022-08-14T09:10:34;5.90;;;4.18;;
41446;SDS011;27185;52.040;4.490;2022-08-14T09:13:21;3.83;;;3.50;;
41446;SDS011;27185;52.040;4.490;2022-08-14T09:16:10;5.82;;;3.60;;
41446;SDS011;27185;52.040;4.490;2022-08-14T09:18:55;4.00;;;3.67;;
41446;SDS011;27185;52.040;4.490;2022-08-14T09:21:42;5.05;;;3.88;;
41446;SDS011;27185;52.040;4.490;2022-08-14T09:24:28;6.03;;;4.15;;
41446;SDS011;27185;52.040;4.490;2022-08-14T09:27:14;6.22;;;4.10;;
41446;SDS011;27185;52.040;4.490;2022-08-14T09:30:00;4.90;;;3.63;;
41446;SDS011;27185;52.040;4.490;2022-08-14T09:36:02;4.25;;;3.38;;
41446;SDS011;27185;52.040;4.490;2022-08-14T09:45:08;3.40;;;3.10;;
41446;SDS011;27185;52.040;4.490;2022-08-14T09:47:56;3.88;;;3.30;;
41446;SDS011;27185;52.040;4.490;2022-08-14T09:50:46;3.97;;;3.00;;
41446;SDS011;27185;52.040;4.490;2022-08-14T09:53:38;3.50;;;3.20;;
41446;SDS011;27185;52.040;4.490;2022-08-14T09:56:28;3.58;;;3.00;;
41446;SDS011;27185;52.040;4.490;2022-08-14T09:59:15;5.43;;;2.95;;
41446;SDS011;27185;52.040;4.490;2022-08-14T10:02:22;4.13;;;2.90;;
41446;SDS011;27185;52.040;4.490;2022-08-14T10:05:10;4.32;;;2.90;;
41446;SDS011;27185;52.040;4.490;2022-08-14T10:07:56;4.15;;;3.30;;
41446;SDS011;27185;52.040;4.490;2022-08-14T10:10:42;3.35;;;2.67;;
41446;SDS011;27185;52.040;4.490;2022-08-14T10:13:27;3.70;;;3.30;;
41446;SDS011;27185;52.040;4.490;2022-08-14T10:16:13;6.45;;;2.88;;
41446;SDS011;27185;52.040;4.490;2022-08-14T10:19:03;5.25;;;2.60;;
41446;SDS011;27185;52.040;4.490;2022-08-14T10:22:00;2.45;;;2.20;;
41446;SDS011;27185;52.040;4.490;2022-08-14T10:24:53;3.33;;;2.72;;
41446;SDS011;27185;52.040;4.490;2022-08-14T10:27:38;8.73;;;2.80;;
41446;SDS011;27185;52.040;4.490;2022-08-14T10:30:31;2.73;;;2.40;;
41446;SDS011;27185;52.040;4.490;2022-08-14T10:33:24;4.68;;;2.85;;
41446;SDS011;27185;52.040;4.490;2022-08-14T10:36:24;4.78;;;3.00;;
41446;SDS011;27185;52.040;4.490;2022-08-14T10:39:15;3.05;;;2.75;;
41446;SDS011;27185;52.040;4.490;2022-08-14T10:42:04;4.05;;;2.83;;
41446;SDS011;27185;52.040;4.490;2022-08-14T10:44:51;4.90;;;2.83;;
41446;SDS011;27185;52.040;4.490;2022-08-14T10:47:37;4.15;;;2.60;;
41446;SDS011;27185;52.040;4.490;2022-08-14T10:50:56;3.27;;;2.97;;
41446;SDS011;27185;52.040;4.490;2022-08-14T10:53:37;4.28;;;3.60;;
41446;SDS011;27185;52.040;4.490;2022-08-14T10:56:30;5.22;;;3.40;;
41446;SDS011;27185;52.040;4.490;2022-08-14T10:59:17;3.10;;;2.65;;
41446;SDS011;27185;52.040;4.490;2022-08-14T11:02:14;4.03;;;3.13;;
41446;SDS011;27185;52.040;4.490;2022-08-14T11:05:20;4.43;;;2.60;;
41446;SDS011;27185;52.040;4.490;2022-08-14T11:08:11;5.43;;;2.90;;
41446;SDS011;27185;52.040;4.490;2022-08-14T11:10:59;3.53;;;2.35;;
41446;SDS011;27185;52.040;4.490;2022-08-14T11:13:47;4.03;;;2.60;;
41446;SDS011;27185;52.040;4.490;2022-08-14T11:16:34;5.75;;;2.90;;
41446;SDS011;27185;52.040;4.490;2022-08-14T11:19:25;3.28;;;2.28;;
41446;SDS011;27185;52.040;4.490;2022-08-14T11:22:11;2.67;;;2.20;;
41446;SDS011;27185;52.040;4.490;2022-08-14T11:25:03;3.30;;;2.67;;
41446;SDS011;27185;52.040;4.490;2022-08-14T11:27:52;2.60;;;2.22;;
41446;SDS011;27185;52.040;4.490;2022-08-14T11:30:39;3.25;;;2.20;;
41446;SDS011;27185;52.040;4.490;2022-08-14T11:33:29;4.80;;;2.08;;
41446;SDS011;27185;52.040;4.490;2022-08-14T11:36:15;4.45;;;1.88;;
41446;SDS011;27185;52.040;4.490;2022-08-14T11:39:00;4.47;;;1.52;;
41446;SDS011;27185;52.040;4.490;2022-08-14T11:41:46;2.72;;;1.80;;
41446;SDS011;27185;52.040;4.490;2022-08-14T11:44:31;2.60;;;1.55;;
41446;SDS011;27185;52.040;4.490;2022-08-14T11:47:17;4.35;;;1.40;;
41446;SDS011;27185;52.040;4.490;2022-08-14T11:53:28;1.73;;;1.20;;
41446;SDS011;27185;52.040;4.490;2022-08-14T11:56:15;3.55;;;1.20;;
41446;SDS011;27185;52.040;4.490;2022-08-14T11:59:00;5.22;;;1.40;;
41446;SDS011;27185;52.040;4.490;2022-08-14T12:01:46;2.70;;;1.33;;
41446;SDS011;27185;52.040;4.490;2022-08-14T12:04:32;1.55;;;1.10;;
41446;SDS011;27185;52.040;4.490;2022-08-14T12:07:19;2.05;;;1.23;;
41446;SDS011;27185;52.040;4.490;2022-08-14T12:10:05;5.60;;;1.30;;
41446;SDS011;27185;52.040;4.490;2022-08-14T12:12:51;1.73;;;1.05;;
41446;SDS011;27185;52.040;4.490;2022-08-14T12:15:41;1.70;;;1.30;;
41446;SDS011;27185;52.040;4.490;2022-08-14T12:18:28;2.85;;;1.08;;
41446;SDS011;27185;52.040;4.490;2022-08-14T12:21:19;2.88;;;1.20;;
41446;SDS011;27185;52.040;4.490;2022-08-14T12:24:08;2.17;;;0.90;;
41446;SDS011;27185;52.040;4.490;2022-08-14T12:26:55;2.15;;;0.85;;
41446;SDS011;27185;52.040;4.490;2022-08-14T12:29:49;1.75;;;1.00;;
41446;SDS011;27185;52.040;4.490;2022-08-14T12:32:44;1.95;;;1.10;;
41446;SDS011;27185;52.040;4.490;2022-08-14T12:35:42;1.45;;;0.73;;
41446;SDS011;27185;52.040;4.490;2022-08-14T12:38:32;1.58;;;1.00;;
41446;SDS011;27185;52.040;4.490;2022-08-14T12:41:21;3.42;;;1.17;;
41446;SDS011;27185;52.040;4.490;2022-08-14T12:44:07;1.70;;;0.90;;
41446;SDS011;27185;52.040;4.490;2022-08-14T12:47:00;1.30;;;0.80;;
41446;SDS011;27185;52.040;4.490;2022-08-14T12:49:48;2.63;;;0.98;;
41446;SDS011;27185;52.040;4.490;2022-08-14T12:52:38;1.63;;;0.88;;
41446;SDS011;27185;52.040;4.490;2022-08-14T12:55:25;3.55;;;0.90;;
41446;SDS011;27185;52.040;4.490;2022-08-14T12:58:11;4.85;;;0.80;;
41446;SDS011;27185;52.040;4.490;2022-08-14T13:00:56;1.30;;;0.83;;
41446;SDS011;27185;52.040;4.490;2022-08-14T13:03:43;1.20;;;0.82;;
41446;SDS011;27185;52.040;4.490;2022-08-14T13:06:30;4.15;;;1.40;;
41446;SDS011;27185;52.040;4.490;2022-08-14T13:09:16;1.45;;;1.05;;
41446;SDS011;27185;52.040;4.490;2022-08-14T13:12:02;3.03;;;1.20;;
41446;SDS011;27185;52.040;4.490;2022-08-14T13:14:49;5.95;;;1.05;;
41446;SDS011;27185;52.040;4.490;2022-08-14T13:17:41;1.63;;;1.00;;
41446;SDS011;27185;52.040;4.490;2022-08-14T13:20:32;3.05;;;1.00;;
41446;SDS011;27185;52.040;4.490;2022-08-14T13:23:18;2.15;;;1.15;;
41446;SDS011;27185;52.040;4.490;2022-08-14T13:26:05;1.25;;;0.90;;
41446;SDS011;27185;52.040;4.490;2022-08-14T13:28:51;1.33;;;1.00;;
41446;SDS011;27185;52.040;4.490;2022-08-14T13:34:27;2.00;;;1.10;;
41446;SDS011;27185;52.040;4.490;2022-08-14T13:37:14;1.48;;;1.10;;
41446;SDS011;27185;52.040;4.490;2022-08-14T13:40:01;2.97;;;1.40;;
41446;SDS011;27185;52.040;4.490;2022-08-14T13:42:48;3.33;;;1.50;;
41446;SDS011;27185;52.040;4.490;2022-08-14T13:45:35;2.45;;;1.20;;
41446;SDS011;27185;52.040;4.490;2022-08-14T13:48:21;1.97;;;1.10;;
41446;SDS011;27185;52.040;4.490;2022-08-14T13:51:08;1.58;;;1.20;;
41446;SDS011;27185;52.040;4.490;2022-08-14T13:53:55;1.80;;;1.40;;
41446;SDS011;27185;52.040;4.490;2022-08-14T13:56:42;2.17;;;1.20;;
41446;SDS011;27185;52.040;4.490;2022-08-14T13:59:29;2.30;;;1.30;;
41446;SDS011;27185;52.040;4.490;2022-08-14T14:02:18;3.70;;;1.67;;
41446;SDS011;27185;52.040;4.490;2022-08-14T14:05:06;2.45;;;1.33;;
41446;SDS011;27185;52.040;4.490;2022-08-14T14:07:52;2.38;;;1.40;;
41446;SDS011;27185;52.040;4.490;2022-08-14T14:10:38;2.70;;;1.35;;
41446;SDS011;27185;52.040;4.490;2022-08-14T14:13:25;3.67;;;1.60;;
41446;SDS011;27185;52.040;4.490;2022-08-14T14:16:12;2.53;;;1.55;;
41446;SDS011;27185;52.040;4.490;2022-08-14T14:19:01;1.75;;;1.35;;
41446;SDS011;27185;52.040;4.490;2022-08-14T14:21:48;2.13;;;1.63;;
41446;SDS011;27185;52.040;4.490;2022-08-14T14:27:20;2.50;;;1.40;;
41446;SDS011;27185;52.040;4.490;2022-08-14T14:30:10;3.22;;;1.35;;
41446;SDS011;27185;52.040;4.490;2022-08-14T14:32:57;3.33;;;1.67;;
41446;SDS011;27185;52.040;4.490;2022-08-14T14:35:45;1.75;;;1.10;;
41446;SDS011;27185;52.040;4.490;2022-08-14T14:38:32;2.42;;;1.88;;
41446;SDS011;27185;52.040;4.490;2022-08-14T14:41:19;3.17;;;1.75;;
41446;SDS011;27185;52.040;4.490;2022-08-14T14:44:06;2.85;;;1.50;;
41446;SDS011;27185;52.040;4.490;2022-08-14T14:46:55;1.60;;;1.40;;
41446;SDS011;27185;52.040;4.490;2022-08-14T14:49:42;3.05;;;1.67;;
41446;SDS011;27185;52.040;4.490;2022-08-14T14:52:28;1.98;;;1.27;;
41446;SDS011;27185;52.040;4.490;2022-08-14T14:55:16;3.38;;;1.90;;
41446;SDS011;27185;52.040;4.490;2022-08-14T14:58:02;2.28;;;1.70;;
41446;SDS011;27185;52.040;4.490;2022-08-14T15:00:52;3.22;;;1.50;;
41446;SDS011;27185;52.040;4.490;2022-08-14T15:03:42;4.00;;;1.63;;
41446;SDS011;27185;52.040;4.490;2022-08-14T15:06:28;2.17;;;1.83;;
41446;SDS011;27185;52.040;4.490;2022-08-14T15:09:15;3.97;;;1.70;;
41446;SDS011;27185;52.040;4.490;2022-08-14T15:12:02;1.92;;;1.42;;
41446;SDS011;27185;52.040;4.490;2022-08-14T15:14:48;2.65;;;1.48;;
41446;SDS011;27185;52.040;4.490;2022-08-14T15:17:33;1.75;;;1.42;;
41446;SDS011;27185;52.040;4.490;2022-08-14T15:20:22;2.58;;;1.70;;
41446;SDS011;27185;52.040;4.490;2022-08-14T15:23:07;4.37;;;2.20;;
41446;SDS011;27185;52.040;4.490;2022-08-14T15:25:53;3.00;;;1.90;;
41446;SDS011;27185;52.040;4.490;2022-08-14T15:28:40;2.42;;;1.80;;
41446;SDS011;27185;52.040;4.490;2022-08-14T15:31:27;2.63;;;1.75;;
41446;SDS011;27185;52.040;4.490;2022-08-14T15:34:13;2.25;;;1.88;;
41446;SDS011;27185;52.040;4.490;2022-08-14T15:36:59;2.47;;;1.90;;
41446;SDS011;27185;52.040;4.490;2022-08-14T15:39:46;4.25;;;3.47;;
41446;SDS011;27185;52.040;4.490;2022-08-14T15:42:33;5.45;;;1.95;;
41446;SDS011;27185;52.040;4.490;2022-08-14T15:45:21;3.10;;;1.67;;
41446;SDS011;27185;52.040;4.490;2022-08-14T15:48:07;5.30;;;4.03;;
41446;SDS011;27185;52.040;4.490;2022-08-14T15:53:39;3.63;;;2.20;;
41446;SDS011;27185;52.040;4.490;2022-08-14T15:56:24;2.40;;;1.83;;
41446;SDS011;27185;52.040;4.490;2022-08-14T15:59:10;3.40;;;2.70;;
41446;SDS011;27185;52.040;4.490;2022-08-14T16:01:56;3.22;;;2.15;;
41446;SDS011;27185;52.040;4.490;2022-08-14T16:04:41;6.32;;;2.20;;
41446;SDS011;27185;52.040;4.490;2022-08-14T16:07:27;3.97;;;2.00;;
41446;SDS011;27185;52.040;4.490;2022-08-14T16:10:13;4.93;;;2.40;;
41446;SDS011;27185;52.040;4.490;2022-08-14T16:12:59;3.00;;;2.53;;
41446;SDS011;27185;52.040;4.490;2022-08-14T16:15:45;2.70;;;1.88;;
41446;SDS011;27185;52.040;4.490;2022-08-14T16:18:30;3.80;;;2.58;;
41446;SDS011;27185;52.040;4.490;2022-08-14T16:21:20;2.75;;;1.83;;
41446;SDS011;27185;52.040;4.490;2022-08-14T16:24:06;3.05;;;2.15;;
41446;SDS011;27185;52.040;4.490;2022-08-14T16:26:52;3.70;;;2.42;;
41446;SDS011;27185;52.040;4.490;2022-08-14T16:29:40;3.63;;;2.80;;
41446;SDS011;27185;52.040;4.490;2022-08-14T16:32:26;2.95;;;2.30;;
41446;SDS011;27185;52.040;4.490;2022-08-14T16:35:12;3.92;;;2.40;;
41446;SDS011;27185;52.040;4.490;2022-08-14T16:38:00;3.58;;;2.03;;
41446;SDS011;27185;52.040;4.490;2022-08-14T16:40:47;2.60;;;2.33;;
41446;SDS011;27185;52.040;4.490;2022-08-14T16:43:34;5.78;;;2.03;;
41446;SDS011;27185;52.040;4.490;2022-08-14T16:46:22;2.28;;;1.77;;
41446;SDS011;27185;52.040;4.490;2022-08-14T16:49:08;2.93;;;1.73;;
41446;SDS011;27185;52.040;4.490;2022-08-14T16:54:41;2.50;;;1.88;;
41446;SDS011;27185;52.040;4.490;2022-08-14T16:57:28;3.05;;;2.10;;
41446;SDS011;27185;52.040;4.490;2022-08-14T17:00:28;3.97;;;2.72;;
41446;SDS011;27185;52.040;4.490;2022-08-14T17:03:18;4.13;;;2.70;;
41446;SDS011;27185;52.040;4.490;2022-08-14T17:06:04;3.70;;;2.10;;
41446;SDS011;27185;52.040;4.490;2022-08-14T17:08:49;3.13;;;2.65;;
41446;SDS011;27185;52.040;4.490;2022-08-14T17:11:39;2.67;;;2.30;;
41446;SDS011;27185;52.040;4.490;2022-08-14T17:15:11;3.10;;;2.25;;
41446;SDS011;27185;52.040;4.490;2022-08-14T17:17:51;3.30;;;2.50;;
41446;SDS011;27185;52.040;4.490;2022-08-14T17:20:37;4.40;;;2.55;;